createdAt,value
2023-01-15T00:02:28.544Z,3.98
2023-01-15T00:04:57.921Z,3.97
2023-01-15T00:07:27.377Z,3.95
2023-01-15T00:09:57.035Z,3.91
2023-01-15T00:12:26.545Z,3.94
2023-01-15T00:14:58.081Z,3.91
2023-01-15T00:17:30.247Z,3.88
2023-01-15T00:19:59.703Z,3.89
2023-01-15T00:22:29.117Z,3.87
2023-01-15T00:25:10.994Z,3.89
2023-01-15T00:27:45.896Z,3.85
2023-01-15T00:30:17.208Z,3.85
2023-01-15T00:32:49.389Z,3.86
2023-01-15T00:35:20.443Z,3.85
2023-01-15T00:37:49.992Z,3.84
2023-01-15T00:40:21.339Z,3.84
2023-01-15T00:42:54.465Z,3.85
2023-01-15T00:45:24.514Z,3.87
2023-01-15T00:47:56.730Z,3.85
2023-01-15T00:50:26.095Z,3.89
2023-01-15T00:52:55.467Z,3.94
2023-01-15T00:55:25.831Z,3.90
2023-01-15T00:57:55.476Z,3.90
2023-01-15T01:00:25.165Z,3.94
2023-01-15T01:02:57.191Z,3.92
2023-01-15T01:05:26.622Z,3.89
2023-01-15T01:07:56.020Z,3.92
2023-01-15T01:10:25.466Z,3.93
2023-01-15T01:12:56.158Z,3.91
2023-01-15T01:15:25.971Z,3.95
2023-01-15T01:17:58.166Z,4.00
2023-01-15T01:20:27.568Z,3.97
2023-01-15T01:22:56.981Z,3.97
2023-01-15T01:25:26.373Z,4.00
2023-01-15T01:27:55.768Z,3.99
2023-01-15T01:30:25.453Z,3.98
2023-01-15T01:32:54.828Z,4.00
2023-01-15T01:35:26.853Z,4.02
2023-01-15T01:37:56.288Z,4.04
2023-01-15T01:40:25.662Z,4.01
2023-01-15T01:42:56.997Z,4.04
2023-01-15T01:45:29.084Z,4.05
2023-01-15T01:48:00.844Z,4.07
2023-01-15T01:50:34.339Z,4.09
2023-01-15T01:53:07.154Z,4.12
2023-01-15T01:55:37.907Z,4.13
2023-01-15T01:58:12.654Z,4.11
2023-01-15T02:00:44.658Z,4.14
2023-01-15T02:03:14.261Z,4.16
2023-01-15T02:05:50.282Z,4.17
2023-01-15T02:08:19.667Z,4.20
2023-01-15T02:10:52.209Z,4.22
2023-01-15T02:13:25.841Z,4.26
2023-01-15T02:16:01.939Z,4.26
2023-01-15T02:18:34.064Z,4.24
2023-01-15T02:21:10.579Z,4.25
2023-01-15T02:24:04.720Z,4.24
2023-01-15T02:26:57.879Z,4.26
2023-01-15T02:29:32.229Z,4.25
2023-01-15T02:32:02.768Z,4.26
2023-01-15T02:34:34.750Z,4.27
2023-01-15T02:37:06.795Z,4.24
2023-01-15T02:39:37.844Z,4.26
2023-01-15T02:42:11.727Z,4.24
2023-01-15T02:44:44.426Z,4.26
2023-01-15T02:47:14.389Z,4.22
2023-01-15T02:49:44.676Z,4.21
2023-01-15T02:52:18.205Z,4.23
2023-01-15T02:54:50.545Z,4.22
2023-01-15T02:57:30.650Z,4.21
2023-01-15T03:00:01.614Z,4.23
2023-01-15T03:02:35.116Z,4.25
2023-01-15T03:05:08.378Z,4.24
2023-01-15T03:07:40.673Z,4.22
2023-01-15T03:10:11.016Z,4.22
2023-01-15T03:12:59.737Z,4.22
2023-01-15T03:15:42.809Z,4.23
2023-01-15T03:18:14.928Z,4.21
2023-01-15T03:20:46.766Z,4.18
2023-01-15T03:23:17.017Z,4.20
2023-01-15T03:25:49.205Z,4.17
2023-01-15T03:28:26.500Z,4.21
2023-01-15T03:30:56.023Z,4.23
2023-01-15T03:33:26.549Z,4.19
2023-01-15T03:35:58.630Z,4.24
2023-01-15T03:38:30.678Z,4.23
2023-01-15T03:41:06.253Z,4.20
2023-01-15T03:43:44.240Z,4.20
2023-01-15T03:46:32.041Z,4.20
2023-01-15T03:49:07.289Z,4.22
2023-01-15T03:51:41.349Z,4.20
2023-01-15T03:54:14.566Z,4.18
2023-01-15T03:56:50.721Z,4.18
2023-01-15T03:59:26.939Z,4.17
2023-01-15T04:01:57.050Z,4.17
2023-01-15T04:04:27.546Z,4.13
2023-01-15T04:06:58.162Z,4.12
2023-01-15T04:09:27.602Z,4.11
2023-01-15T04:11:57.061Z,4.13
2023-01-15T04:14:30.317Z,4.08
2023-01-15T04:16:59.702Z,4.13
2023-01-15T04:19:29.227Z,4.16
2023-01-15T04:21:58.641Z,4.14
2023-01-15T04:24:28.490Z,4.12
2023-01-15T04:26:57.871Z,4.14
2023-01-15T04:29:30.201Z,4.14
2023-01-15T04:31:59.966Z,4.14
2023-01-15T04:34:30.431Z,4.11
2023-01-15T04:37:00.355Z,4.12
2023-01-15T04:39:29.757Z,4.14
2023-01-15T04:42:11.783Z,4.16
2023-01-15T04:44:43.861Z,4.11
2023-01-15T04:47:13.262Z,4.06
2023-01-15T04:49:42.665Z,4.10
2023-01-15T04:52:12.173Z,4.06
2023-01-15T04:54:41.589Z,4.04
2023-01-15T04:57:10.998Z,4.05
2023-01-15T04:59:43.003Z,4.08
2023-01-15T05:02:15.020Z,4.02
2023-01-15T05:04:44.657Z,4.04
2023-01-15T05:07:14.121Z,4.09
2023-01-15T05:09:43.558Z,4.07
2023-01-15T05:12:16.154Z,4.10
2023-01-15T05:14:48.132Z,4.06
2023-01-15T05:17:17.520Z,4.09
2023-01-15T05:19:46.891Z,4.08
2023-01-15T05:22:16.263Z,4.16
2023-01-15T05:24:45.640Z,4.15
2023-01-15T05:27:15.014Z,4.11
2023-01-15T05:29:44.389Z,4.09
2023-01-15T05:32:16.452Z,4.17
2023-01-15T05:34:46.351Z,4.15
2023-01-15T05:37:15.751Z,4.16
2023-01-15T05:39:45.173Z,4.16
2023-01-15T05:42:14.570Z,4.18
2023-01-15T05:44:44.397Z,4.16
2023-01-15T05:47:16.418Z,4.17
2023-01-15T05:49:45.878Z,4.12
2023-01-15T05:52:15.274Z,4.13
2023-01-15T05:54:44.889Z,4.14
2023-01-15T05:57:15.372Z,4.15
2023-01-15T05:59:44.881Z,4.13
2023-01-15T06:02:16.835Z,4.23
2023-01-15T06:04:46.197Z,4.31
2023-01-15T06:07:17.422Z,4.34
2023-01-15T06:09:46.933Z,4.39
2023-01-15T06:12:16.341Z,4.44
2023-01-15T06:14:45.743Z,4.50
2023-01-15T06:17:17.778Z,4.58
2023-01-15T06:19:47.178Z,4.57
2023-01-15T06:22:18.266Z,4.63
2023-01-15T06:24:47.653Z,4.64
2023-01-15T06:27:17.019Z,4.64
2023-01-15T06:29:46.439Z,4.61
2023-01-15T06:32:18.944Z,4.67
2023-01-15T06:34:48.380Z,4.69
2023-01-15T06:37:17.786Z,4.76
2023-01-15T06:39:47.214Z,4.75
2023-01-15T06:42:31.498Z,4.79
2023-01-15T06:45:13.351Z,4.79
2023-01-15T06:47:45.609Z,4.85
2023-01-15T06:50:15.938Z,4.90
2023-01-15T06:52:45.352Z,4.82
2023-01-15T06:55:14.889Z,4.85
2023-01-15T06:57:44.423Z,4.91
2023-01-15T07:00:15.808Z,4.87
2023-01-15T07:02:47.793Z,4.88
2023-01-15T07:05:17.236Z,4.89
2023-01-15T07:07:46.637Z,4.96
2023-01-15T07:10:16.028Z,4.89
2023-01-15T07:12:45.404Z,4.90
2023-01-15T07:15:14.916Z,4.90
2023-01-15T07:17:46.962Z,4.88
2023-01-15T07:20:16.472Z,4.90
2023-01-15T07:22:45.829Z,4.85
2023-01-15T07:25:15.312Z,4.83
2023-01-15T07:27:44.713Z,4.85
2023-01-15T07:30:15.676Z,4.81
2023-01-15T07:32:47.649Z,4.80
2023-01-15T07:35:17.120Z,4.83
2023-01-15T07:37:46.738Z,4.80
2023-01-15T07:40:16.131Z,4.82
2023-01-15T07:42:58.018Z,4.81
2023-01-15T07:45:39.896Z,4.82
2023-01-15T07:48:26.796Z,4.82
2023-01-15T07:50:56.179Z,4.79
2023-01-15T07:53:25.608Z,4.82
2023-01-15T07:55:55.033Z,4.81
2023-01-15T07:58:24.462Z,4.78
2023-01-15T08:00:53.885Z,4.79
2023-01-15T08:03:25.930Z,4.75
2023-01-15T08:05:56.908Z,4.71
2023-01-15T08:08:26.531Z,4.71
2023-01-15T08:11:08.412Z,4.72
2023-01-15T08:13:50.349Z,4.69
2023-01-15T08:16:19.918Z,4.70
2023-01-15T08:18:51.958Z,4.73
2023-01-15T08:21:21.613Z,4.69
2023-01-15T08:23:51.185Z,4.67
2023-01-15T08:26:20.593Z,4.69
2023-01-15T08:28:50.002Z,4.67
2023-01-15T08:31:19.620Z,4.68
2023-01-15T08:33:49.160Z,4.59
2023-01-15T08:36:21.215Z,4.61
2023-01-15T08:38:51.941Z,4.59
2023-01-15T08:41:21.486Z,4.58
2023-01-15T08:43:50.849Z,4.56
2023-01-15T08:46:20.253Z,4.55
2023-01-15T08:48:49.658Z,4.50
2023-01-15T08:51:22.140Z,4.48
2023-01-15T08:53:51.549Z,4.49
2023-01-15T08:56:22.304Z,4.46
2023-01-15T08:58:51.841Z,4.41
2023-01-15T09:01:21.354Z,4.39
2023-01-15T09:03:50.934Z,4.39
2023-01-15T09:06:22.882Z,4.39
2023-01-15T09:08:52.304Z,4.36
2023-01-15T09:11:21.734Z,4.39
2023-01-15T09:13:51.755Z,4.38
2023-01-15T09:16:21.238Z,4.43
2023-01-15T09:18:50.685Z,4.46
2023-01-15T09:21:25.469Z,4.44
2023-01-15T09:23:55.154Z,4.39
2023-01-15T09:26:30.196Z,4.38
2023-01-15T09:28:59.906Z,4.44
2023-01-15T09:31:29.832Z,4.48
2023-01-15T09:33:59.540Z,4.53
2023-01-15T09:36:33.211Z,4.59
2023-01-15T09:39:03.702Z,4.60
2023-01-15T09:41:53.841Z,4.66
2023-01-15T09:44:33.913Z,4.68
2023-01-15T09:47:11.263Z,4.82
2023-01-15T09:49:51.446Z,4.80
2023-01-15T09:52:28.819Z,4.96
2023-01-15T09:55:05.970Z,4.92
2023-01-15T09:57:35.891Z,4.96
2023-01-15T10:00:06.506Z,4.93
2023-01-15T10:02:41.094Z,4.91
2023-01-15T10:05:14.589Z,4.99
2023-01-15T10:07:54.237Z,5.04
2023-01-15T10:10:26.902Z,4.96
2023-01-15T10:13:01.078Z,4.99
2023-01-15T10:15:37.499Z,4.94
2023-01-15T10:18:08.791Z,4.97
2023-01-15T10:20:51.956Z,4.94
2023-01-15T10:23:37.450Z,4.98
2023-01-15T10:26:18.470Z,5.03
2023-01-15T10:28:57.990Z,4.94
2023-01-15T10:31:33.597Z,4.91
2023-01-15T10:34:17.703Z,4.91
2023-01-15T10:36:50.714Z,4.92
2023-01-15T10:39:29.091Z,4.90
2023-01-15T10:42:05.009Z,4.85
2023-01-15T10:44:43.115Z,4.88
2023-01-15T10:47:17.250Z,4.84
2023-01-15T10:49:49.112Z,4.83
2023-01-15T10:52:26.717Z,5.03
2023-01-15T10:55:06.890Z,4.96
2023-01-15T10:57:46.332Z,4.89
2023-01-15T11:00:17.154Z,4.86
2023-01-15T11:02:48.464Z,4.90
2023-01-15T11:05:19.678Z,4.83
2023-01-15T11:08:19.416Z,4.81
2023-01-15T11:10:45.961Z,4.81
2023-01-15T11:13:35.754Z,4.84
2023-01-15T11:16:17.712Z,4.84
2023-01-15T11:19:00.320Z,4.86
2023-01-15T11:21:30.700Z,4.84
2023-01-15T11:24:01.427Z,4.86
2023-01-15T11:26:34.684Z,4.82
2023-01-15T11:29:15.744Z,4.84
2023-01-15T11:31:45.438Z,4.90
2023-01-15T11:34:22.381Z,5.00
2023-01-15T11:36:51.907Z,4.90
2023-01-15T11:39:30.968Z,4.87
2023-01-15T11:42:24.920Z,4.89
2023-01-15T11:45:08.606Z,4.89
2023-01-15T11:47:50.480Z,4.79
2023-01-15T11:50:33.897Z,4.74
2023-01-15T11:53:03.336Z,4.63
2023-01-15T11:55:32.883Z,4.64
2023-01-15T11:58:04.903Z,4.60
2023-01-15T12:00:38.923Z,4.65
2023-01-15T12:03:16.310Z,4.17
2023-01-15T12:05:49.249Z,3.87
2023-01-15T12:08:25.684Z,3.83
2023-01-15T12:11:25.947Z,3.67
2023-01-15T12:14:05.109Z,3.51
2023-01-15T12:16:40.669Z,3.62
2023-01-15T12:19:16.906Z,3.62
2023-01-15T12:22:16.960Z,3.80
2023-01-15T12:25:10.371Z,3.84
2023-01-15T12:28:01.349Z,4.03
2023-01-15T12:30:39.261Z,4.00
2023-01-15T12:33:18.088Z,4.21
2023-01-15T12:35:51.882Z,4.28
2023-01-15T12:38:23.985Z,4.24
2023-01-15T12:40:56.198Z,4.14
2023-01-15T12:43:41.166Z,4.22
2023-01-15T12:46:16.155Z,4.21
2023-01-15T12:48:51.351Z,4.10
2023-01-15T12:51:26.438Z,3.97
2023-01-15T12:53:58.887Z,3.88
2023-01-15T12:56:31.997Z,4.03
2023-01-15T12:59:06.244Z,3.94
2023-01-15T13:01:45.312Z,3.85
2023-01-15T13:04:18.538Z,3.84
2023-01-15T13:06:51.062Z,3.80
2023-01-15T13:09:31.515Z,3.83
2023-01-15T13:12:01.200Z,3.88
2023-01-15T13:14:30.624Z,3.90
2023-01-15T13:17:06.867Z,3.92
2023-01-15T13:19:41.366Z,3.94
2023-01-15T13:22:15.595Z,4.02
2023-01-15T13:24:59.123Z,4.15
2023-01-15T13:27:37.572Z,4.18
2023-01-15T13:30:30.707Z,4.24
2023-01-15T13:33:09.957Z,4.21
2023-01-15T13:35:45.468Z,4.29
2023-01-15T13:38:19.166Z,4.37
2023-01-15T13:40:52.061Z,4.41
2023-01-15T13:43:36.147Z,4.48
2023-01-15T13:46:07.154Z,4.56
2023-01-15T13:48:45.496Z,4.63
2023-01-15T13:51:37.961Z,4.64
2023-01-15T13:54:08.125Z,4.70
2023-01-15T13:56:40.099Z,4.69
2023-01-15T13:59:29.634Z,4.82
2023-01-15T14:01:59.245Z,4.83
2023-01-15T14:04:39.993Z,4.84
2023-01-15T14:07:23.527Z,4.88
2023-01-15T14:09:53.124Z,4.89
2023-01-15T14:12:34.946Z,4.88
2023-01-15T14:15:16.080Z,4.92
2023-01-15T14:18:08.797Z,4.91
2023-01-15T14:20:59.103Z,4.95
2023-01-15T14:23:40.250Z,4.94
2023-01-15T14:26:15.042Z,4.94
2023-01-15T14:29:03.659Z,4.95
2023-01-15T14:31:54.012Z,4.97
2023-01-15T14:34:27.106Z,4.98
2023-01-15T14:37:01.908Z,4.98
2023-01-15T14:39:39.752Z,5.00
2023-01-15T14:42:24.632Z,4.98
2023-01-15T14:45:06.414Z,4.98
2023-01-15T14:47:38.763Z,5.04
2023-01-15T14:50:27.914Z,4.99
2023-01-15T14:53:04.334Z,5.03
2023-01-15T14:55:33.821Z,5.05
2023-01-15T14:58:08.951Z,5.06
2023-01-15T15:00:41.142Z,4.98
2023-01-15T15:03:19.303Z,4.98
2023-01-15T15:05:49.510Z,4.98
2023-01-15T15:08:22.208Z,4.86
2023-01-15T15:10:56.393Z,4.73
2023-01-15T15:13:31.700Z,4.51
2023-01-15T15:16:09.003Z,4.19
2023-01-15T15:18:44.781Z,3.87
2023-01-15T15:21:19.185Z,3.61
2023-01-15T15:23:57.981Z,3.38
2023-01-15T15:26:29.270Z,2.88
2023-01-15T15:29:00.330Z,2.74
2023-01-15T15:31:31.143Z,2.65
2023-01-15T15:34:01.503Z,2.61
2023-01-15T15:36:32.998Z,2.55
2023-01-15T15:39:07.493Z,2.54
2023-01-15T15:41:51.700Z,2.50
2023-01-15T15:44:52.474Z,2.45
2023-01-15T15:47:38.205Z,2.40
2023-01-15T15:50:08.719Z,2.32
2023-01-15T15:52:38.297Z,2.32
2023-01-15T15:55:18.633Z,2.31
2023-01-15T15:57:48.797Z,2.32
2023-01-15T16:00:21.095Z,2.32
2023-01-15T16:02:50.718Z,2.28
2023-01-15T16:05:26.071Z,2.26
2023-01-15T16:07:56.752Z,2.24
2023-01-15T16:10:33.023Z,2.27
2023-01-15T16:13:05.239Z,2.29
2023-01-15T16:15:37.408Z,2.32
2023-01-15T16:18:07.383Z,2.29
2023-01-15T16:20:36.994Z,2.31
2023-01-15T16:23:07.613Z,2.33
2023-01-15T16:25:41.467Z,2.36
2023-01-15T16:28:25.899Z,2.40
2023-01-15T16:30:59.139Z,2.41
2023-01-15T16:33:29.433Z,2.44
2023-01-15T16:35:59.820Z,2.49
2023-01-15T16:38:29.587Z,2.52
2023-01-15T16:41:02.210Z,2.52
2023-01-15T16:43:32.945Z,2.51
2023-01-15T16:46:07.778Z,2.55
2023-01-15T16:48:45.713Z,2.54
2023-01-15T16:51:33.826Z,2.52
2023-01-15T16:54:04.666Z,2.53
2023-01-15T16:56:55.328Z,2.54
2023-01-15T17:00:03.405Z,2.55
2023-01-15T17:02:45.778Z,2.58
2023-01-15T17:05:26.220Z,2.59
2023-01-15T17:07:57.902Z,2.63
2023-01-15T17:10:31.409Z,2.63
2023-01-15T17:13:03.380Z,2.67
2023-01-15T17:15:40.809Z,2.68
2023-01-15T17:18:27.936Z,2.70
2023-01-15T17:20:57.612Z,2.70
2023-01-15T17:23:30.079Z,2.70
2023-01-15T17:25:59.711Z,2.71
2023-01-15T17:28:31.746Z,2.69
2023-01-15T17:31:03.051Z,2.69
2023-01-15T17:33:32.524Z,2.68
2023-01-15T17:36:01.936Z,2.69
2023-01-15T17:38:31.383Z,2.68
2023-01-15T17:41:07.091Z,2.70
2023-01-15T17:43:39.203Z,2.72
2023-01-15T17:46:09.200Z,2.75
2023-01-15T17:48:38.959Z,2.75
2023-01-15T17:51:11.847Z,2.76
2023-01-15T17:53:41.409Z,2.77
2023-01-15T17:56:24.044Z,2.80
2023-01-15T17:59:08.522Z,2.80
2023-01-15T18:01:54.558Z,2.84
2023-01-15T18:04:39.915Z,2.86
2023-01-15T18:07:10.795Z,2.90
2023-01-15T18:09:40.744Z,2.93
2023-01-15T18:12:10.594Z,2.97
2023-01-15T18:14:42.612Z,3.00
2023-01-15T18:17:12.034Z,3.04
2023-01-15T18:19:41.567Z,3.05
2023-01-15T18:22:12.772Z,3.05
2023-01-15T18:24:42.285Z,3.13
2023-01-15T18:27:11.701Z,3.16
2023-01-15T18:29:43.786Z,3.14
2023-01-15T18:32:13.488Z,3.17
2023-01-15T18:34:42.876Z,3.18
2023-01-15T18:37:13.312Z,3.19
2023-01-15T18:39:42.678Z,3.23
2023-01-15T18:42:30.799Z,3.23
2023-01-15T18:45:15.271Z,3.24
2023-01-15T18:47:44.676Z,3.26
2023-01-15T18:50:14.062Z,3.24
2023-01-15T18:52:52.853Z,3.23
2023-01-15T18:55:23.945Z,3.24
2023-01-15T18:57:53.388Z,3.25
2023-01-15T19:00:27.069Z,3.23
2023-01-15T19:02:56.537Z,3.22
2023-01-15T19:05:25.980Z,3.24
2023-01-15T19:07:55.992Z,3.24
2023-01-15T19:10:25.559Z,3.26
2023-01-15T19:12:54.985Z,3.25
2023-01-15T19:15:39.479Z,3.26
2023-01-15T19:18:21.613Z,3.23
2023-01-15T19:20:51.027Z,3.19
2023-01-15T19:23:20.663Z,3.14
2023-01-15T19:25:51.475Z,3.15
2023-01-15T19:28:22.673Z,3.14
2023-01-15T19:31:07.040Z,3.13
2023-01-15T19:33:37.179Z,3.12
2023-01-15T19:36:07.407Z,3.11
2023-01-15T19:38:38.055Z,3.12
2023-01-15T19:41:24.749Z,3.10
2023-01-15T19:44:06.634Z,3.13
2023-01-15T19:46:54.543Z,3.08
2023-01-15T19:49:37.862Z,3.03
2023-01-15T19:52:22.546Z,3.09
2023-01-15T19:55:02.189Z,3.08
2023-01-15T19:57:31.687Z,3.07
2023-01-15T20:00:01.248Z,3.10
2023-01-15T20:02:33.270Z,3.06
2023-01-15T20:05:02.925Z,3.05
2023-01-15T20:07:32.517Z,3.02
2023-01-15T20:10:02.063Z,3.02
2023-01-15T20:12:43.932Z,2.99
2023-01-15T20:15:13.844Z,2.97
2023-01-15T20:17:45.963Z,2.98
2023-01-15T20:20:16.025Z,2.98
2023-01-15T20:22:45.587Z,2.94
2023-01-15T20:25:15.330Z,2.97
2023-01-15T20:27:44.989Z,2.94
2023-01-15T20:30:16.362Z,2.95
2023-01-15T20:32:49.053Z,3.01
2023-01-15T20:35:20.985Z,2.99
2023-01-15T20:37:50.858Z,3.01
2023-01-15T20:40:21.731Z,3.06
2023-01-15T20:43:03.740Z,3.04
2023-01-15T20:45:34.658Z,3.08
2023-01-15T20:48:19.615Z,3.09
2023-01-15T20:51:00.958Z,3.10
2023-01-15T20:53:33.529Z,3.09
2023-01-15T20:56:03.307Z,3.11
2023-01-15T20:58:32.903Z,3.14
2023-01-15T21:01:06.513Z,3.11
2023-01-15T21:03:39.391Z,3.12
2023-01-15T21:06:10.230Z,3.13
2023-01-15T21:08:40.983Z,3.17
2023-01-15T21:11:10.432Z,3.14
2023-01-15T21:13:45.323Z,3.14
2023-01-15T21:16:16.407Z,3.14
2023-01-15T21:18:49.216Z,3.15
2023-01-15T21:21:21.745Z,3.14
2023-01-15T21:23:51.165Z,3.13
2023-01-15T21:26:20.700Z,3.14
2023-01-15T21:28:50.125Z,3.13
2023-01-15T21:31:19.523Z,3.15
2023-01-15T21:33:51.511Z,3.17
2023-01-15T21:36:20.893Z,3.18
2023-01-15T21:38:54.356Z,3.17
2023-01-15T21:41:45.773Z,3.17
2023-01-15T21:44:29.295Z,3.22
2023-01-15T21:46:58.724Z,3.21
2023-01-15T21:49:33.142Z,3.22
2023-01-15T21:52:03.566Z,3.22
2023-01-15T21:54:33.568Z,3.22
2023-01-15T21:57:03.333Z,3.23
2023-01-15T21:59:33.225Z,3.18
2023-01-15T22:02:03.562Z,3.18
2023-01-15T22:04:37.676Z,3.18
2023-01-15T22:07:07.102Z,3.16
2023-01-15T22:09:36.517Z,3.10
2023-01-15T22:12:06.510Z,3.05
2023-01-15T22:14:36.561Z,3.03
2023-01-15T22:17:06.819Z,2.99
2023-01-15T22:19:41.755Z,2.91
2023-01-15T22:22:13.207Z,2.90
2023-01-15T22:24:43.619Z,2.83
2023-01-15T22:27:17.293Z,2.85
2023-01-15T22:29:46.810Z,2.79
2023-01-15T22:32:17.249Z,2.74
2023-01-15T22:34:49.736Z,2.74
2023-01-15T22:37:19.435Z,2.74
2023-01-15T22:39:49.980Z,2.74
2023-01-15T22:42:28.274Z,2.69
2023-01-15T22:45:00.659Z,2.69
2023-01-15T22:47:31.021Z,2.67
2023-01-15T22:50:03.017Z,2.71
2023-01-15T22:52:35.626Z,2.68
2023-01-15T22:55:05.010Z,2.72
2023-01-15T22:57:34.490Z,2.72
2023-01-15T23:00:06.851Z,2.80
2023-01-15T23:02:48.553Z,2.80
2023-01-15T23:05:20.570Z,2.81
2023-01-15T23:07:50.235Z,2.83
2023-01-15T23:10:19.755Z,2.82
2023-01-15T23:12:49.172Z,2.84
2023-01-15T23:15:18.598Z,2.85
2023-01-15T23:17:48.162Z,2.88
2023-01-15T23:20:21.666Z,2.88
2023-01-15T23:22:51.067Z,2.86
2023-01-15T23:25:20.853Z,2.90
2023-01-15T23:27:50.369Z,2.91
2023-01-15T23:30:20.047Z,2.95
2023-01-15T23:32:49.559Z,3.00
2023-01-15T23:35:21.698Z,3.07
2023-01-15T23:37:51.140Z,3.12
2023-01-15T23:40:21.595Z,3.12
2023-01-15T23:43:18.149Z,3.14
2023-01-15T23:46:02.991Z,3.16
2023-01-15T23:48:32.727Z,3.20
2023-01-15T23:51:04.737Z,3.20
2023-01-15T23:53:34.247Z,3.23
2023-01-15T23:56:04.894Z,3.27
2023-01-15T23:58:34.834Z,3.27
